LTCNLCLK

Guest
Details From LTCN - KAHRAMANMARAS
To LCLK - Larnaca
Flight Number -
Tags generated
Created
Modified
Stats Distance 243 nm / 451 km
Max Altitude 32,400 ft / 9,876 m
Waypoints 5
Social Downloads 0
Likes 0
Share VATSIM

Download

Looking for another format? Having issues loading an existing format? Contact us
Advertisement - Login to hide

Notes

Basic altitude profile: - Ascent Rate: 2500ft/min - Ascent Speed: 250kts - Cruise Altitude: 35000ft - Cruise Speed: 420kts - Descent Rate: 1500ft/min - Descent Speed: 250kts Options: - Use NATs: yes - Use PACOTS: yes - Use low airways: yes - Use high airways: yes

Route

LTCN ADA UW84 TARSU VESAR LCLK

ID Type Via Altitude (ft/m) Position (lat/lon) Dist (leg/tot) Name
O LTCN APT - 0 / 0 37.53897 / 36.95341 - / 0 nm KAHRAMANMARAS
ADA VOR - 32,400 / 9,876 36.94056 / 35.21028 90 / 90 nm ADANA VOR-DME
TARSU FIX UW84 (AWY-HI) 28,500 / 8,687 36.62200 / 34.51900 38 / 129 nm
VESAR FIX - 14,000 / 4,267 35.91556 / 34.01611 48 / 178 nm
O LCLK APT - 0 / 0 34.87512 / 33.62483 65 / 243 nm Larnaca

Altitude Profile

Advertisement - Login to hide

Weather


0- 5 10 15 20 25 30 35+ Temperature / °C

Clouds and Precipitation
Forecast for 2018-10-23 18:00 UTC. Updated 5 hours ago

Ground ~20,000 ft ~40,000 ft Winds

LTCN

Details ICAO LTCN (KCM)
Name KAHRAMANMARAS
Region Turkey
Timezone Europe/Istanbul (UTC+3.0)
Stats Elevation 1,723 ft / 525 m (AMSL)
Location 37.539000° 36.953400°
Runways 1
Magnetic Variation 5.579° E

METAR

LTCN 231950Z 00000KT 7000 SCT033 BKN080 17/16 Q1016 NOSIG

Decode

TAF

Not found

Departure Runways

ID Width Length Bearing (true/mag) Surface Threshold Overrun Markings Lighting
08 98 ft / 30 m 7,533 ft / 2,296 m 75.46° / 69.89° ASPHALT 0 ft / 0 m 196 ft / 60 m APP EDGE THRESHOLD
26 98 ft / 30 m 7,533 ft / 2,296 m 255.48° / 249.90° ASPHALT 984 ft / 300 m 196 ft / 60 m APP EDGE THRESHOLD SSALR

LCLK

Details ICAO LCLK (LCA)
Name Larnaca Airport
Region Cyprus
Timezone Asia/Nicosia (UTC+3.0)
Stats Elevation 9 ft / 3 m (AMSL)
Location 34.873800° 33.623900°
Runways 1
Magnetic Variation 5.065° E

METAR

LCLK 232000Z 32005KT CAVOK 22/21 Q1010 NOSIG

Decode

TAF

TAF LCLK 231730Z 2318/2418 04010KT 9999 FEW020 BECMG 2319/2322 34007KT BECMG 2409/2412 22014KT

Decode

Destination Runways

ID Width Length Bearing (true/mag) Surface Threshold Overrun Markings Lighting
04 148 ft / 45 m 9,831 ft / 2,997 m 45.07° / 40.00° ASPHALT 0 ft / 0 m 194 ft / 59 m PREC-APP CENTERLINE EDGE THRESHOLD ALSF-II REIL-OMNI
22 148 ft / 45 m 9,831 ft / 2,997 m 225.08° / 220.02° ASPHALT 594 ft / 181 m 0 ft / 0 m PREC-APP CENTERLINE EDGE THRESHOLD ALSF-II REIL-OMNI

Approach Navaids

Runway Type Ident Frequency Range Bearing (true/mag) Slope Elevation
22 LOC-ILS ILC 110.30 MHz 18 nm / 33 km 225.17° / 220.10 ° - 8 ft / 2 m (AMSL)
22 GS ILC 110.30 MHz 10 nm / 19 km 225.32° / 220.25 ° 2.75° 24 ft / 7 m (AMSL)
22 DME ILC 110.30 MHz 18 nm / 33 km - - 20 ft / 6 m (AMSL)